createdAt,value
2022-08-02T00:02:24.943Z,100368.77
2022-08-02T00:07:26.919Z,100368.90
2022-08-02T00:12:28.849Z,100369.58
2022-08-02T00:17:30.804Z,100372.99
2022-08-02T00:22:32.686Z,100372.35
2022-08-02T00:27:34.735Z,100375.96
2022-08-02T00:32:36.613Z,100382.04
2022-08-02T00:37:40.360Z,100384.48
2022-08-02T00:42:43.836Z,100384.83
2022-08-02T00:47:45.738Z,100379.73
2022-08-02T00:52:47.679Z,100382.84
2022-08-02T00:57:50.016Z,100379.81
2022-08-02T01:02:52.126Z,100380.41
2022-08-02T01:07:54.063Z,100378.48
2022-08-02T01:12:55.938Z,100378.19
2022-08-02T01:18:11.657Z,100378.84
2022-08-02T01:23:20.401Z,100385.77
2022-08-02T01:28:41.382Z,100381.86
2022-08-02T01:33:47.770Z,100381.44
2022-08-02T01:38:50.778Z,100388.93
2022-08-02T01:43:56.749Z,100387.76
2022-08-02T01:49:04.051Z,100384.48
2022-08-02T01:54:13.596Z,100382.63
2022-08-02T01:59:18.968Z,100381.03
2022-08-02T02:04:23.305Z,100388.55
2022-08-02T02:09:28.638Z,100391.65
2022-08-02T02:14:30.959Z,100391.84
2022-08-02T02:19:33.499Z,100390.45
2022-08-02T02:24:38.567Z,100388.41
2022-08-02T02:29:44.668Z,100393.36
2022-08-02T02:34:47.899Z,100395.49
2022-08-02T02:39:52.130Z,100397.34
2022-08-02T02:44:54.537Z,100401.33
2022-08-02T02:49:56.543Z,100403.16
2022-08-02T02:55:00.750Z,100405.90
2022-08-02T03:00:04.116Z,100401.88
2022-08-02T03:05:11.996Z,100398.51
2022-08-02T03:10:13.974Z,100404.04
2022-08-02T03:15:17.376Z,100400.91
2022-08-02T03:20:20.461Z,100401.31
2022-08-02T03:25:22.495Z,100404.94
2022-08-02T03:30:27.228Z,100409.05
2022-08-02T03:35:29.526Z,100412.23
2022-08-02T03:40:31.664Z,100410.55
2022-08-02T03:45:34.198Z,100418.41
2022-08-02T03:50:36.281Z,100424.30
2022-08-02T03:55:39.862Z,100432.64
2022-08-02T04:00:42.035Z,100439.35
2022-08-02T04:05:59.341Z,100449.05
2022-08-02T04:11:25.466Z,100451.11
2022-08-02T04:16:44.238Z,100464.30
2022-08-02T04:21:51.395Z,100474.20
2022-08-02T04:27:19.370Z,100480.11
2022-08-02T04:32:21.850Z,100480.80
2022-08-02T04:37:24.842Z,100486.98
2022-08-02T04:42:29.928Z,100491.24
2022-08-02T04:47:54.257Z,100489.02
2022-08-02T04:52:57.129Z,100490.03
2022-08-02T04:58:36.878Z,100487.39
2022-08-02T05:03:30.300Z,100502.41
2022-08-02T05:08:32.372Z,100505.80
2022-08-02T05:13:34.547Z,100506.77
2022-08-02T05:18:56.743Z,100509.09
2022-08-02T05:24:00.242Z,100513.63
2022-08-02T05:29:04.227Z,100520.05
2022-08-02T05:34:11.352Z,100528.21
2022-08-02T05:39:19.033Z,100535.36
2022-08-02T05:44:21.846Z,100536.61
2022-08-02T05:49:23.861Z,100537.80
2022-08-02T05:55:13.099Z,100539.86
2022-08-02T06:00:15.955Z,100545.59
2022-08-02T06:05:21.526Z,100549.23
2022-08-02T06:10:36.318Z,100553.08
2022-08-02T06:15:53.369Z,100560.02
2022-08-02T06:20:59.076Z,100561.09
2022-08-02T06:26:22.831Z,100564.06
2022-08-02T06:31:25.259Z,100573.32
2022-08-02T06:36:41.450Z,100574.92
2022-08-02T06:41:49.035Z,100575.99
2022-08-02T06:47:11.422Z,100575.77
2022-08-02T06:52:18.727Z,100579.91
2022-08-02T06:57:21.154Z,100583.24
2022-08-02T07:02:23.762Z,100587.81
2022-08-02T07:07:27.725Z,100586.11
2022-08-02T07:12:31.170Z,100590.16
2022-08-02T07:17:34.166Z,100587.26
2022-08-02T07:22:36.488Z,100582.94
2022-08-02T07:27:38.758Z,100580.34
2022-08-02T07:32:40.740Z,100585.22
2022-08-02T07:37:55.449Z,100579.02
2022-08-02T07:43:03.901Z,100576.55
2022-08-02T07:48:08.146Z,100573.68
2022-08-02T07:53:10.110Z,100571.39
2022-08-02T07:58:13.510Z,100571.27
2022-08-02T08:03:16.454Z,100575.67
2022-08-02T08:08:22.154Z,100575.08
2022-08-02T08:13:24.907Z,100579.81
2022-08-02T08:18:26.884Z,100578.92
2022-08-02T08:23:30.106Z,100586.48
2022-08-02T08:28:39.632Z,100589.39
2022-08-02T08:33:52.351Z,100592.25
2022-08-02T08:38:55.975Z,100594.86
2022-08-02T08:44:00.674Z,100600.98
2022-08-02T08:49:12.873Z,100599.01
2022-08-02T08:54:18.452Z,100600.13
2022-08-02T08:59:23.072Z,100609.66
2022-08-02T09:04:25.063Z,100613.63
2022-08-02T09:09:29.453Z,100609.05
2022-08-02T09:14:32.559Z,100604.86
2022-08-02T09:19:36.546Z,100601.83
2022-08-02T09:24:44.848Z,100597.54
2022-08-02T09:30:12.497Z,100593.17
2022-08-02T09:35:16.728Z,100603.81
2022-08-02T09:40:34.972Z,100602.02
2022-08-02T09:45:40.634Z,100593.41
2022-08-02T09:50:45.523Z,100593.02
2022-08-02T09:55:56.409Z,100596.70
2022-08-02T10:00:58.655Z,100601.86
2022-08-02T10:06:03.111Z,100595.70
2022-08-02T10:11:05.568Z,100592.80
2022-08-02T10:16:07.776Z,100584.88
2022-08-02T10:21:13.782Z,100593.27
2022-08-02T10:26:17.748Z,100590.95
2022-08-02T10:31:24.150Z,100584.88
2022-08-02T10:36:28.975Z,100587.86
2022-08-02T10:41:49.427Z,100592.27
2022-08-02T10:47:16.880Z,100588.82
2022-08-02T10:52:21.308Z,100583.39
2022-08-02T10:57:26.194Z,100582.20
2022-08-02T11:02:43.070Z,100584.86
2022-08-02T11:07:49.899Z,100577.45
2022-08-02T11:13:01.401Z,100577.71
2022-08-02T11:18:04.169Z,100575.80
2022-08-02T11:23:44.298Z,100578.08
2022-08-02T11:28:50.916Z,100563.52
2022-08-02T11:33:54.037Z,100562.20
2022-08-02T11:39:15.863Z,100563.09
2022-08-02T11:44:19.301Z,100561.70
2022-08-02T11:49:28.901Z,100559.83
2022-08-02T11:54:35.412Z,100556.34
2022-08-02T11:59:39.152Z,100555.05
2022-08-02T12:04:41.665Z,100555.89
2022-08-02T12:09:46.388Z,100553.53
2022-08-02T12:14:48.360Z,100553.34
2022-08-02T12:19:57.232Z,100550.42
2022-08-02T12:24:59.574Z,100552.11
2022-08-02T12:30:10.385Z,100551.13
2022-08-02T12:35:26.491Z,100550.56
2022-08-02T12:40:31.996Z,100544.88
2022-08-02T12:45:55.198Z,100543.04
2022-08-02T12:50:57.653Z,100544.59
2022-08-02T12:56:03.661Z,100547.77
2022-08-02T13:01:06.026Z,100538.38
2022-08-02T13:06:32.331Z,100533.35
2022-08-02T13:11:30.366Z,100531.18
2022-08-02T13:16:34.237Z,100523.19
2022-08-02T13:22:01.560Z,100523.41
2022-08-02T13:27:08.709Z,100522.05
2022-08-02T13:32:11.779Z,100510.52
2022-08-02T13:37:14.244Z,100507.98
2022-08-02T13:42:18.851Z,100495.23
2022-08-02T13:47:35.914Z,100489.29
2022-08-02T13:52:44.250Z,100485.21
2022-08-02T13:57:46.212Z,100481.39
2022-08-02T14:02:55.767Z,100482.35
2022-08-02T14:08:00.273Z,100475.05
2022-08-02T14:13:04.028Z,100474.52
2022-08-02T14:18:06.335Z,100475.15
2022-08-02T14:23:08.371Z,100467.50
2022-08-02T14:28:15.478Z,100464.01
2022-08-02T14:33:22.387Z,100462.02
2022-08-02T14:38:28.758Z,100459.23
2022-08-02T14:43:54.527Z,100456.23
2022-08-02T14:49:06.038Z,100454.89
2022-08-02T14:54:12.018Z,100456.27
2022-08-02T14:59:20.017Z,100458.73
2022-08-02T15:04:25.482Z,100454.38
2022-08-02T15:09:40.159Z,100461.89
2022-08-02T15:14:45.583Z,100461.05
2022-08-02T15:19:59.325Z,100454.08
2022-08-02T15:25:03.657Z,100448.47
2022-08-02T15:30:22.901Z,100441.35
2022-08-02T15:35:28.201Z,100442.61
2022-08-02T15:40:32.574Z,100438.56
2022-08-02T15:45:35.605Z,100441.60
2022-08-02T15:50:37.747Z,100439.67
2022-08-02T15:56:04.474Z,100433.88
2022-08-02T16:01:05.187Z,100437.56
2022-08-02T16:06:07.458Z,100435.79
2022-08-02T16:11:09.772Z,100441.30
2022-08-02T16:16:15.022Z,100439.09
2022-08-02T16:21:23.171Z,100439.88
2022-08-02T16:26:26.109Z,100434.27
2022-08-02T16:31:28.266Z,100432.41
2022-08-02T16:36:30.766Z,100433.88
2022-08-02T16:41:51.609Z,100431.09
2022-08-02T16:46:55.633Z,100420.59
2022-08-02T16:51:58.040Z,100424.45
2022-08-02T16:57:03.487Z,100416.27
2022-08-02T17:02:11.676Z,100416.26
2022-08-02T17:08:16.499Z,100417.61
2022-08-02T17:12:39.890Z,100419.55
2022-08-02T17:17:44.444Z,100420.20
2022-08-02T17:22:49.923Z,100421.89
2022-08-02T17:27:56.001Z,100426.99
2022-08-02T17:33:01.078Z,100431.14
2022-08-02T17:38:03.619Z,100429.35
2022-08-02T17:43:14.529Z,100432.66
2022-08-02T17:48:21.706Z,100434.73
2022-08-02T17:53:36.445Z,100438.05
2022-08-02T17:58:38.608Z,100443.96
2022-08-02T18:03:54.655Z,100440.89
2022-08-02T18:08:59.628Z,100441.91
2022-08-02T18:14:01.653Z,100441.41
2022-08-02T18:19:04.473Z,100441.10
2022-08-02T18:24:09.935Z,100448.11
2022-08-02T18:29:12.406Z,100451.96
2022-08-02T18:34:14.730Z,100449.86
2022-08-02T18:39:17.146Z,100455.71
2022-08-02T18:44:19.602Z,100459.41
2022-08-02T18:49:23.577Z,100456.52
2022-08-02T18:54:26.799Z,100463.43
2022-08-02T18:59:36.829Z,100464.26
2022-08-02T19:04:43.754Z,100475.83
2022-08-02T19:09:49.230Z,100473.63
2022-08-02T19:14:54.028Z,100473.63
2022-08-02T19:19:56.286Z,100476.56
2022-08-02T19:25:01.262Z,100478.17
2022-08-02T19:30:07.401Z,100476.85
2022-08-02T19:35:29.266Z,100480.90
2022-08-02T19:40:34.089Z,100481.79
2022-08-02T19:45:53.227Z,100477.85
2022-08-02T19:51:16.690Z,100478.39
2022-08-02T19:56:37.580Z,100480.69
2022-08-02T20:01:48.481Z,100482.20
2022-08-02T20:06:51.344Z,100483.89
2022-08-02T20:11:54.982Z,100493.11
2022-08-02T20:16:57.792Z,100488.69
2022-08-02T20:22:00.545Z,100491.23
2022-08-02T20:27:07.154Z,100488.95
2022-08-02T20:32:11.567Z,100495.23
2022-08-02T20:38:00.480Z,100496.45
2022-08-02T20:42:42.347Z,100498.00
2022-08-02T20:47:50.968Z,100496.17
2022-08-02T20:52:55.163Z,100494.93
2022-08-02T20:58:03.110Z,100491.25
2022-08-02T21:03:14.250Z,100492.46
2022-08-02T21:08:21.981Z,100491.25
2022-08-02T21:13:26.889Z,100484.21
2022-08-02T21:18:40.955Z,100484.80
2022-08-02T21:23:48.797Z,100486.65
2022-08-02T21:29:03.127Z,100487.09
2022-08-02T21:34:22.135Z,100489.33
2022-08-02T21:39:28.961Z,100488.00
2022-08-02T21:44:38.570Z,100493.88
2022-08-02T21:50:13.294Z,100492.81
2022-08-02T21:55:24.242Z,100497.55
2022-08-02T22:00:57.132Z,100498.09
2022-08-02T22:06:12.592Z,100501.02
2022-08-02T22:11:17.219Z,100501.36
2022-08-02T22:16:24.043Z,100501.88
2022-08-02T22:21:55.010Z,100503.30
2022-08-02T22:27:05.230Z,100507.60
2022-08-02T22:32:38.837Z,100507.45
2022-08-02T22:38:17.506Z,100510.90
2022-08-02T22:43:22.758Z,100507.27
2022-08-02T22:48:40.635Z,100510.45
2022-08-02T22:53:57.265Z,100516.10
2022-08-02T23:04:25.902Z,100517.95
2022-08-02T23:09:33.501Z,100522.16
2022-08-02T23:14:59.626Z,100523.51
2022-08-02T23:20:16.007Z,100520.77
2022-08-02T23:25:21.976Z,100522.39
2022-08-02T23:30:34.477Z,100522.50
2022-08-02T23:35:50.720Z,100513.64
2022-08-02T23:40:59.636Z,100508.83
2022-08-02T23:46:05.652Z,100510.14
2022-08-02T23:51:11.800Z,100510.36
2022-08-02T23:56:29.537Z,100508.48
